createdAt,value
2018-11-26T00:00:46.503Z,4.22
2018-11-26T00:03:15.059Z,4.21
2018-11-26T00:05:43.561Z,4.22
2018-11-26T00:08:12.890Z,4.23
2018-11-26T00:10:52.577Z,4.23
2018-11-26T00:13:21.118Z,4.23
2018-11-26T00:15:49.655Z,4.23
2018-11-26T00:18:18.181Z,4.23
2018-11-26T00:20:46.725Z,4.23
2018-11-26T00:23:15.245Z,4.21
2018-11-26T00:25:43.762Z,4.20
2018-11-26T00:28:12.256Z,4.19
2018-11-26T00:30:40.779Z,4.19
2018-11-26T00:33:09.308Z,4.17
2018-11-26T00:35:37.876Z,4.18
2018-11-26T00:38:06.471Z,4.16
2018-11-26T00:40:34.983Z,4.15
2018-11-26T00:43:03.512Z,4.16
2018-11-26T00:45:32.106Z,4.16
2018-11-26T00:48:00.605Z,4.16
2018-11-26T00:50:29.165Z,4.14
2018-11-26T00:52:57.694Z,4.14
2018-11-26T00:55:26.209Z,4.13
2018-11-26T00:57:54.730Z,4.14
2018-11-26T01:00:23.247Z,4.13
2018-11-26T01:02:51.767Z,4.12
2018-11-26T01:05:34.390Z,4.12
2018-11-26T01:08:03.072Z,4.11
2018-11-26T01:10:31.593Z,4.10
2018-11-26T01:13:00.088Z,4.10
2018-11-26T01:15:28.640Z,4.09
2018-11-26T01:17:57.169Z,4.07
2018-11-26T01:20:25.688Z,4.08
2018-11-26T01:22:54.240Z,4.08
2018-11-26T01:25:22.784Z,4.07
2018-11-26T01:27:51.338Z,4.07
2018-11-26T01:30:19.868Z,4.07
2018-11-26T01:32:48.446Z,4.09
2018-11-26T01:35:16.973Z,4.07
2018-11-26T01:37:45.509Z,4.07
2018-11-26T01:40:19.380Z,4.06
2018-11-26T01:42:48.114Z,4.01
2018-11-26T01:45:16.643Z,4.04
2018-11-26T01:47:45.164Z,4.00
2018-11-26T01:50:13.694Z,3.98
2018-11-26T01:52:42.208Z,4.00
2018-11-26T01:55:11.225Z,3.97
2018-11-26T01:57:39.824Z,3.93
2018-11-26T02:00:18.182Z,3.93
2018-11-26T02:02:46.719Z,3.93
2018-11-26T02:05:15.236Z,3.94
2018-11-26T02:07:43.784Z,3.91
2018-11-26T02:10:13.682Z,3.88
2018-11-26T02:12:42.204Z,3.86
2018-11-26T02:15:12.209Z,3.86
2018-11-26T02:17:40.919Z,3.83
2018-11-26T02:20:10.423Z,2.54
2018-11-26T02:22:38.957Z,3.85
2018-11-26T02:25:08.528Z,3.90
2018-11-26T02:27:37.152Z,3.88
2018-11-26T02:30:06.745Z,3.88
2018-11-26T02:32:35.250Z,3.86
2018-11-26T02:35:03.765Z,3.86
2018-11-26T02:37:32.296Z,3.84
2018-11-26T02:40:00.857Z,3.81
2018-11-26T02:42:29.384Z,3.82
2018-11-26T02:44:57.926Z,3.77
2018-11-26T02:47:26.443Z,3.72
2018-11-26T02:49:55.015Z,3.69
2018-11-26T02:52:23.509Z,3.66
2018-11-26T02:54:52.399Z,3.61
2018-11-26T02:57:20.620Z,3.59
2018-11-26T02:59:49.112Z,3.54
2018-11-26T03:02:17.632Z,3.52
2018-11-26T03:04:46.168Z,3.51
2018-11-26T03:07:14.686Z,3.49
2018-11-26T03:09:43.203Z,3.49
2018-11-26T03:12:11.719Z,3.45
2018-11-26T03:14:40.243Z,3.48
2018-11-26T03:17:08.756Z,3.44
2018-11-26T03:19:37.283Z,3.45
2018-11-26T03:22:05.835Z,3.42
2018-11-26T03:24:34.388Z,3.42
2018-11-26T03:27:02.899Z,3.43
2018-11-26T03:29:31.413Z,3.42
2018-11-26T03:31:59.922Z,3.42
2018-11-26T03:34:28.433Z,3.41
2018-11-26T03:36:56.923Z,3.41
2018-11-26T03:39:25.439Z,3.41
2018-11-26T03:41:53.956Z,3.42
2018-11-26T03:44:22.484Z,3.43
2018-11-26T03:46:51.031Z,3.44
2018-11-26T03:49:19.560Z,3.44
2018-11-26T03:51:48.075Z,3.47
2018-11-26T03:54:16.592Z,3.50
2018-11-26T03:56:45.100Z,3.47
2018-11-26T03:59:13.588Z,3.48
2018-11-26T04:01:42.121Z,3.49
2018-11-26T04:04:10.642Z,3.49
2018-11-26T04:06:39.136Z,3.51
2018-11-26T04:09:08.518Z,3.52
2018-11-26T04:11:37.303Z,3.53
2018-11-26T04:14:05.921Z,3.53
2018-11-26T04:16:34.418Z,3.54
2018-11-26T04:19:02.927Z,3.54
2018-11-26T04:21:31.477Z,3.56
2018-11-26T04:23:59.973Z,3.57
2018-11-26T04:26:28.492Z,3.58
2018-11-26T04:28:57.025Z,3.57
2018-11-26T04:31:25.728Z,3.58
2018-11-26T04:33:54.343Z,3.59
2018-11-26T04:36:22.922Z,3.58
2018-11-26T04:38:51.489Z,3.59
2018-11-26T04:41:20.367Z,3.60
2018-11-26T04:43:49.550Z,3.60
2018-11-26T04:46:18.644Z,3.59
2018-11-26T04:48:47.698Z,3.59
2018-11-26T04:51:16.533Z,3.60
2018-11-26T04:53:45.248Z,3.61
2018-11-26T04:56:13.800Z,3.61
2018-11-26T04:58:42.337Z,3.61
2018-11-26T05:01:10.947Z,3.61
2018-11-26T05:03:39.791Z,3.60
2018-11-26T05:06:08.920Z,3.61
2018-11-26T05:08:37.423Z,3.61
2018-11-26T05:11:06.155Z,3.63
2018-11-26T05:13:34.676Z,3.63
2018-11-26T05:16:03.201Z,3.64
2018-11-26T05:18:31.703Z,3.64
2018-11-26T05:21:00.230Z,3.65
2018-11-26T05:23:28.775Z,3.64
2018-11-26T05:25:57.295Z,3.65
2018-11-26T05:28:25.858Z,3.65
2018-11-26T05:30:54.362Z,3.65
2018-11-26T05:33:22.865Z,3.64
2018-11-26T05:35:51.377Z,3.65
2018-11-26T05:38:19.940Z,3.66
2018-11-26T05:40:48.475Z,3.67
2018-11-26T05:43:17.036Z,3.67
2018-11-26T05:45:45.590Z,3.67
2018-11-26T05:48:14.099Z,3.69
2018-11-26T05:50:42.643Z,3.67
2018-11-26T05:53:11.174Z,3.67
2018-11-26T05:55:39.704Z,3.69
2018-11-26T05:58:08.321Z,3.66
2018-11-26T06:00:37.263Z,3.69
2018-11-26T06:03:06.205Z,3.70
2018-11-26T06:05:35.392Z,3.01
2018-11-26T06:08:03.944Z,3.72
2018-11-26T06:10:32.476Z,3.72
2018-11-26T06:13:01.001Z,3.72
2018-11-26T06:15:29.528Z,3.73
2018-11-26T06:17:58.051Z,3.75
2018-11-26T06:20:26.585Z,3.77
2018-11-26T06:22:55.173Z,3.77
2018-11-26T06:25:23.687Z,3.77
2018-11-26T06:27:52.209Z,3.76
2018-11-26T06:30:20.751Z,3.78
2018-11-26T06:32:49.305Z,3.79
2018-11-26T06:35:21.882Z,3.80
2018-11-26T06:37:50.462Z,3.79
2018-11-26T06:40:19.023Z,3.79
2018-11-26T06:42:47.586Z,3.80
2018-11-26T06:45:17.311Z,3.80
2018-11-26T06:47:45.853Z,3.82
2018-11-26T06:50:15.646Z,3.82
2018-11-26T06:52:44.386Z,3.83
2018-11-26T06:55:14.182Z,3.83
2018-11-26T06:57:43.577Z,3.84
2018-11-26T07:00:16.420Z,3.86
2018-11-26T07:02:44.997Z,3.86
2018-11-26T07:05:15.459Z,3.86
2018-11-26T07:07:44.110Z,3.85
2018-11-26T07:10:13.269Z,3.84
2018-11-26T07:12:41.825Z,3.83
2018-11-26T07:15:13.521Z,3.84
2018-11-26T07:17:42.150Z,3.84
2018-11-26T07:20:12.958Z,3.84
2018-11-26T07:22:41.501Z,3.86
2018-11-26T07:25:14.169Z,3.87
2018-11-26T07:27:43.464Z,3.88
2018-11-26T07:30:14.265Z,3.88
2018-11-26T07:32:43.104Z,3.88
2018-11-26T07:35:11.997Z,3.89
2018-11-26T07:37:41.768Z,3.92
2018-11-26T07:40:12.459Z,3.93
2018-11-26T07:42:42.612Z,3.92
2018-11-26T07:45:13.124Z,3.93
2018-11-26T07:47:41.679Z,3.96
2018-11-26T07:50:11.828Z,3.99
2018-11-26T07:52:40.315Z,4.02
2018-11-26T07:55:12.208Z,4.03
2018-11-26T07:57:40.727Z,4.02
2018-11-26T08:00:12.604Z,4.04
2018-11-26T08:02:41.156Z,4.05
2018-11-26T08:05:11.407Z,4.08
2018-11-26T08:07:39.973Z,4.10
2018-11-26T08:10:12.560Z,4.11
2018-11-26T08:12:41.108Z,4.12
2018-11-26T08:15:12.299Z,4.14
2018-11-26T08:17:40.934Z,4.20
2018-11-26T08:20:10.116Z,4.26
2018-11-26T08:22:38.665Z,4.27
2018-11-26T08:25:11.201Z,4.63
2018-11-26T08:27:40.044Z,4.35
2018-11-26T08:30:19.351Z,4.63
2018-11-26T08:32:49.123Z,4.41
2018-11-26T08:35:17.968Z,4.38
2018-11-26T08:37:51.817Z,4.39
2018-11-26T08:40:30.878Z,4.40
2018-11-26T08:43:15.056Z,4.44
2018-11-26T08:45:50.961Z,4.49
2018-11-26T08:48:29.187Z,4.92
2018-11-26T08:50:59.932Z,4.98
2018-11-26T08:53:28.780Z,4.76
2018-11-26T08:55:57.477Z,4.70
2018-11-26T08:58:26.316Z,4.65
2018-11-26T09:01:00.254Z,4.87
2018-11-26T09:03:33.956Z,4.66
2018-11-26T09:06:04.298Z,5.00
2018-11-26T09:08:34.196Z,5.02
2018-11-26T09:11:03.810Z,5.06
2018-11-26T09:13:32.432Z,5.08
2018-11-26T09:16:01.193Z,5.07
2018-11-26T09:18:29.890Z,4.74
2018-11-26T09:20:58.701Z,4.78
2018-11-26T09:23:27.414Z,4.96
2018-11-26T09:25:56.298Z,4.70
2018-11-26T09:28:25.159Z,4.72
2018-11-26T09:30:53.801Z,5.01
2018-11-26T09:33:22.369Z,4.76
2018-11-26T09:35:50.893Z,4.79
2018-11-26T09:38:19.408Z,5.15
2018-11-26T09:40:47.903Z,4.83
2018-11-26T09:43:16.407Z,5.18
2018-11-26T09:45:44.924Z,5.24
2018-11-26T09:48:13.425Z,5.25
2018-11-26T09:50:41.959Z,5.26
2018-11-26T09:53:10.490Z,5.26
2018-11-26T09:55:38.988Z,5.22
2018-11-26T09:58:07.496Z,5.22
2018-11-26T10:00:36.029Z,5.14
2018-11-26T10:03:04.610Z,5.13
2018-11-26T10:05:33.124Z,5.12
2018-11-26T10:08:01.748Z,5.12
2018-11-26T10:10:30.315Z,5.08
2018-11-26T10:12:58.829Z,5.04
2018-11-26T10:15:28.069Z,4.97
2018-11-26T10:17:56.553Z,4.92
2018-11-26T10:20:25.096Z,4.89
2018-11-26T10:22:54.034Z,4.86
2018-11-26T10:25:23.545Z,4.86
2018-11-26T10:27:51.873Z,4.82
2018-11-26T10:30:21.887Z,4.98
2018-11-26T10:32:51.201Z,5.05
2018-11-26T10:35:20.288Z,4.70
2018-11-26T10:37:48.846Z,4.59
2018-11-26T10:40:18.408Z,4.60
2018-11-26T10:42:46.918Z,4.59
2018-11-26T10:45:17.299Z,4.59
2018-11-26T10:47:45.821Z,4.57
2018-11-26T10:50:17.155Z,4.57
2018-11-26T10:52:47.057Z,4.56
2018-11-26T10:55:16.956Z,4.56
2018-11-26T10:57:45.482Z,4.57
2018-11-26T11:00:20.309Z,4.57
2018-11-26T11:02:48.976Z,4.56
2018-11-26T11:05:17.476Z,4.57
2018-11-26T11:07:45.983Z,4.66
2018-11-26T11:10:16.582Z,4.57
2018-11-26T11:12:45.083Z,4.68
2018-11-26T11:15:13.837Z,4.51
2018-11-26T11:17:42.352Z,4.47
2018-11-26T11:20:18.763Z,4.40
2018-11-26T11:22:47.311Z,4.37
2018-11-26T11:25:16.802Z,4.41
2018-11-26T11:27:45.341Z,4.38
2018-11-26T11:30:19.653Z,4.37
2018-11-26T11:32:48.208Z,4.39
2018-11-26T11:35:17.090Z,4.36
2018-11-26T11:37:46.649Z,4.33
2018-11-26T11:40:32.210Z,4.66
2018-11-26T11:43:01.299Z,4.32
2018-11-26T11:45:30.526Z,4.30
2018-11-26T11:47:59.051Z,4.57
2018-11-26T11:50:27.535Z,4.32
2018-11-26T11:52:56.029Z,4.61
2018-11-26T11:55:25.565Z,4.35
2018-11-26T11:57:54.212Z,4.37
2018-11-26T12:00:30.453Z,4.35
2018-11-26T12:03:00.066Z,4.35
2018-11-26T12:05:28.576Z,4.58
2018-11-26T12:07:57.615Z,4.66
2018-11-26T12:10:26.182Z,4.70
2018-11-26T12:12:55.216Z,4.66
2018-11-26T12:15:23.729Z,4.66
2018-11-26T12:17:52.486Z,4.66
2018-11-26T12:20:20.985Z,4.62
2018-11-26T12:22:49.974Z,4.61
2018-11-26T12:25:19.743Z,4.63
2018-11-26T12:27:48.302Z,4.61
2018-11-26T12:30:24.010Z,4.65
2018-11-26T12:32:52.517Z,4.66
2018-11-26T12:35:21.502Z,4.67
2018-11-26T12:37:49.998Z,4.64
2018-11-26T12:40:23.654Z,4.26
2018-11-26T12:42:54.800Z,4.20
2018-11-26T12:45:31.551Z,4.17
2018-11-26T12:48:00.203Z,4.20
2018-11-26T12:50:29.315Z,4.20
2018-11-26T12:52:57.826Z,4.17
2018-11-26T12:55:27.078Z,4.17
2018-11-26T12:57:56.406Z,4.14
2018-11-26T13:00:26.621Z,4.12
2018-11-26T13:02:57.459Z,4.13
2018-11-26T13:05:25.978Z,4.15
2018-11-26T13:07:55.048Z,4.13
2018-11-26T13:10:24.043Z,4.14
2018-11-26T13:12:53.499Z,4.12
2018-11-26T13:15:23.283Z,4.09
2018-11-26T13:17:52.178Z,4.06
2018-11-26T13:20:23.397Z,4.07
2018-11-26T13:22:52.310Z,4.06
2018-11-26T13:25:23.778Z,4.04
2018-11-26T13:27:54.377Z,4.02
2018-11-26T13:30:24.971Z,4.00
2018-11-26T13:32:54.968Z,3.99
2018-11-26T13:35:23.483Z,4.01
2018-11-26T13:37:51.977Z,3.99
2018-11-26T13:40:20.953Z,3.98
2018-11-26T13:42:49.878Z,3.97
2018-11-26T13:45:33.235Z,3.97
2018-11-26T13:48:01.757Z,3.93
2018-11-26T13:50:33.073Z,3.93
2018-11-26T13:53:01.698Z,3.93
2018-11-26T13:55:30.215Z,3.94
2018-11-26T13:57:58.840Z,3.93
2018-11-26T14:00:27.312Z,3.95
2018-11-26T14:02:55.848Z,3.95
2018-11-26T14:05:24.365Z,3.97
2018-11-26T14:07:52.860Z,2.77
2018-11-26T14:10:23.593Z,3.92
2018-11-26T14:12:57.695Z,3.90
2018-11-26T14:15:26.274Z,3.89
2018-11-26T14:17:54.767Z,3.87
2018-11-26T14:20:23.271Z,3.86
2018-11-26T14:22:51.799Z,3.88
2018-11-26T14:25:20.367Z,3.86
2018-11-26T14:27:49.275Z,3.86
2018-11-26T14:30:19.775Z,3.86
2018-11-26T14:32:48.374Z,3.86
2018-11-26T14:35:16.939Z,3.83
2018-11-26T14:37:46.266Z,3.82
2018-11-26T14:40:21.209Z,3.80
2018-11-26T14:42:49.697Z,3.72
2018-11-26T14:45:18.239Z,3.71
2018-11-26T14:47:46.780Z,3.67
2018-11-26T14:50:16.429Z,3.65
2018-11-26T14:52:46.279Z,3.64
2018-11-26T14:55:18.389Z,3.66
2018-11-26T14:57:47.916Z,3.62
2018-11-26T15:00:17.655Z,3.60
2018-11-26T15:02:46.189Z,3.60
2018-11-26T15:05:14.832Z,3.60
2018-11-26T15:07:43.387Z,3.57
2018-11-26T15:10:17.083Z,3.59
2018-11-26T15:12:45.950Z,3.57
2018-11-26T15:15:16.701Z,3.57
2018-11-26T15:17:45.789Z,3.56
2018-11-26T15:20:17.240Z,3.57
2018-11-26T15:22:45.781Z,3.55
2018-11-26T15:25:16.442Z,3.56
2018-11-26T15:27:44.949Z,3.56
2018-11-26T15:30:31.385Z,3.55
2018-11-26T15:32:59.921Z,3.55
2018-11-26T15:35:28.416Z,3.55
2018-11-26T15:37:56.970Z,3.57
2018-11-26T15:40:25.484Z,3.56
2018-11-26T15:42:54.000Z,3.58
2018-11-26T15:45:24.429Z,3.61
2018-11-26T15:47:53.754Z,3.61
2018-11-26T15:50:22.286Z,3.61
2018-11-26T15:52:50.786Z,3.54
2018-11-26T15:55:20.365Z,3.50
2018-11-26T15:57:49.105Z,3.49
2018-11-26T16:00:20.682Z,3.47
2018-11-26T16:02:49.327Z,3.48
2018-11-26T16:05:21.199Z,3.47
2018-11-26T16:07:51.054Z,3.45
2018-11-26T16:10:19.547Z,3.45
2018-11-26T16:12:49.792Z,3.42
2018-11-26T16:15:19.903Z,3.42
2018-11-26T16:17:48.624Z,3.38
2018-11-26T16:20:18.654Z,3.34
2018-11-26T16:22:47.238Z,3.31
2018-11-26T16:25:17.981Z,3.31
2018-11-26T16:27:46.472Z,3.28
2018-11-26T16:30:15.906Z,3.29
2018-11-26T16:32:46.238Z,3.28
2018-11-26T16:35:18.923Z,3.26
2018-11-26T16:37:47.411Z,3.22
2018-11-26T16:40:16.801Z,3.23
2018-11-26T16:42:45.339Z,3.19
2018-11-26T16:45:23.017Z,3.17
2018-11-26T16:47:52.481Z,3.14
2018-11-26T16:50:22.438Z,3.12
2018-11-26T16:52:51.744Z,3.08
2018-11-26T16:55:19.543Z,3.09
2018-11-26T16:57:48.073Z,3.11
2018-11-26T17:00:17.787Z,3.14
2018-11-26T17:02:47.321Z,3.15
2018-11-26T17:05:22.434Z,3.16
2018-11-26T17:07:49.963Z,3.15
2018-11-26T17:10:18.432Z,3.17
2018-11-26T17:12:46.946Z,3.19
2018-11-26T17:15:16.546Z,3.20
2018-11-26T17:17:45.087Z,3.24
2018-11-26T17:20:14.626Z,3.24
2018-11-26T17:22:43.364Z,3.25
2018-11-26T17:25:12.856Z,3.25
2018-11-26T17:27:41.780Z,3.24
2018-11-26T17:30:13.700Z,3.21
2018-11-26T17:32:42.208Z,3.19
2018-11-26T17:35:12.034Z,3.20
2018-11-26T17:37:42.817Z,3.19
2018-11-26T17:40:11.685Z,3.17
2018-11-26T17:42:40.209Z,3.18
2018-11-26T17:45:10.499Z,3.18
2018-11-26T17:47:39.092Z,3.18
2018-11-26T17:50:14.324Z,3.17
2018-11-26T17:52:42.809Z,3.13
2018-11-26T17:55:11.474Z,3.13
2018-11-26T17:57:39.957Z,3.10
2018-11-26T18:00:12.928Z,3.11
2018-11-26T18:02:42.239Z,3.08
2018-11-26T18:05:20.296Z,3.08
2018-11-26T18:07:51.100Z,3.06
2018-11-26T18:10:19.645Z,3.07
2018-11-26T18:12:48.157Z,3.07
2018-11-26T18:15:16.701Z,3.08
2018-11-26T18:17:46.036Z,3.07
2018-11-26T18:20:15.974Z,3.06
2018-11-26T18:22:45.645Z,3.04
2018-11-26T18:25:14.461Z,3.04
2018-11-26T18:28:02.578Z,3.04
2018-11-26T18:30:36.826Z,2.99
2018-11-26T18:33:05.667Z,2.97
2018-11-26T18:35:34.220Z,2.92
2018-11-26T18:38:02.734Z,2.91
2018-11-26T18:40:31.229Z,2.86
2018-11-26T18:42:59.724Z,2.84
2018-11-26T18:45:28.224Z,2.83
2018-11-26T18:47:56.733Z,2.82
2018-11-26T18:50:25.258Z,2.81
2018-11-26T18:52:53.749Z,2.82
2018-11-26T18:55:22.262Z,2.83
2018-11-26T18:57:50.790Z,2.85
2018-11-26T19:00:23.663Z,2.86
2018-11-26T19:02:53.014Z,2.90
2018-11-26T19:05:21.728Z,2.90
2018-11-26T19:07:51.039Z,2.91
2018-11-26T19:10:21.866Z,2.92
2018-11-26T19:13:57.722Z,2.91
2018-11-26T19:16:28.348Z,2.90
2018-11-26T19:18:56.913Z,2.96
2018-11-26T19:21:25.445Z,2.98
2018-11-26T19:23:53.970Z,2.95
2018-11-26T19:26:22.510Z,2.90
2018-11-26T19:28:51.054Z,2.86
2018-11-26T19:31:19.578Z,2.76
2018-11-26T19:33:48.094Z,2.68
2018-11-26T19:36:16.622Z,2.66
2018-11-26T19:38:45.149Z,2.63
2018-11-26T19:41:13.644Z,2.63
2018-11-26T19:43:42.144Z,2.60
2018-11-26T19:46:10.722Z,2.56
2018-11-26T19:48:39.227Z,2.53
2018-11-26T19:51:07.728Z,2.51
2018-11-26T19:53:36.283Z,2.51
2018-11-26T19:56:04.809Z,2.52
2018-11-26T19:58:33.323Z,2.51
2018-11-26T20:01:01.884Z,2.49
2018-11-26T20:03:35.533Z,2.52
2018-11-26T20:06:21.445Z,2.45
2018-11-26T20:08:51.633Z,2.43
2018-11-26T20:11:20.244Z,2.44
2018-11-26T20:13:48.767Z,2.46
2018-11-26T20:16:20.985Z,2.43
2018-11-26T20:18:49.522Z,2.40
2018-11-26T20:21:18.023Z,2.44
2018-11-26T20:23:46.513Z,2.46
2018-11-26T20:26:15.011Z,2.52
2018-11-26T20:28:43.554Z,2.51
2018-11-26T20:31:12.246Z,2.52
2018-11-26T20:33:40.733Z,2.53
2018-11-26T20:36:11.065Z,2.53
2018-11-26T20:38:39.571Z,2.59
2018-11-26T20:41:09.373Z,2.65
2018-11-26T20:43:37.891Z,2.62
2018-11-26T20:46:06.520Z,2.70
2018-11-26T20:48:35.036Z,2.77
2018-11-26T20:51:03.545Z,2.79
2018-11-26T20:53:32.127Z,2.73
2018-11-26T20:56:01.291Z,2.78
2018-11-26T20:58:29.860Z,2.73
2018-11-26T21:00:58.569Z,2.77
2018-11-26T21:03:31.448Z,2.82
2018-11-26T21:06:00.544Z,2.79
2018-11-26T21:08:29.117Z,2.75
2018-11-26T21:10:57.722Z,2.80
2018-11-26T21:13:26.254Z,2.78
2018-11-26T21:15:54.841Z,2.80
2018-11-26T21:18:23.434Z,2.82
2018-11-26T21:20:52.200Z,2.84
2018-11-26T21:23:25.081Z,2.83
2018-11-26T21:25:54.010Z,2.77
2018-11-26T21:28:22.568Z,2.75
2018-11-26T21:30:52.265Z,2.69
2018-11-26T21:33:19.748Z,2.55
2018-11-26T21:35:48.342Z,2.51
2018-11-26T21:38:16.888Z,2.48
2018-11-26T21:40:45.562Z,2.49
2018-11-26T21:43:14.186Z,2.52
2018-11-26T21:45:45.861Z,2.55
2018-11-26T21:48:14.443Z,2.58
2018-11-26T21:50:43.022Z,2.61
2018-11-26T21:53:11.608Z,2.61
2018-11-26T21:55:40.175Z,2.64
2018-11-26T21:58:08.763Z,2.67
2018-11-26T22:00:38.809Z,2.71
2018-11-26T22:03:11.911Z,2.71
2018-11-26T22:05:41.637Z,2.65
2018-11-26T22:08:10.886Z,2.62
2018-11-26T22:10:43.457Z,2.70
2018-11-26T22:13:13.454Z,2.68
2018-11-26T22:15:42.053Z,2.68
2018-11-26T22:18:10.623Z,2.69
2018-11-26T22:20:39.217Z,2.66
2018-11-26T22:23:08.592Z,2.68
2018-11-26T22:25:37.103Z,2.74
2018-11-26T22:28:07.337Z,2.75
2018-11-26T22:30:36.868Z,2.78
2018-11-26T22:33:05.542Z,2.78
2018-11-26T22:35:34.144Z,2.78
2018-11-26T22:38:02.703Z,2.80
2018-11-26T22:40:31.211Z,2.84
2018-11-26T22:42:59.737Z,2.88
2018-11-26T22:45:32.208Z,2.85
2018-11-26T22:48:07.310Z,2.90
2018-11-26T22:50:36.813Z,2.95
2018-11-26T22:53:05.781Z,3.00
2018-11-26T22:55:34.300Z,3.03
2018-11-26T22:58:02.863Z,3.05
2018-11-26T23:00:39.360Z,3.07
2018-11-26T23:03:07.857Z,3.08
2018-11-26T23:05:36.472Z,3.11
2018-11-26T23:08:05.559Z,3.12
2018-11-26T23:10:34.078Z,3.10
2018-11-26T23:13:02.598Z,3.11
2018-11-26T23:15:31.129Z,3.12
2018-11-26T23:17:59.703Z,3.15
2018-11-26T23:20:28.233Z,3.14
2018-11-26T23:22:56.761Z,3.15
2018-11-26T23:25:25.255Z,3.14
2018-11-26T23:27:53.751Z,3.16
2018-11-26T23:30:24.317Z,3.19
2018-11-26T23:32:55.835Z,3.19
2018-11-26T23:35:24.382Z,3.20
2018-11-26T23:37:53.896Z,3.17
2018-11-26T23:40:22.450Z,3.18
2018-11-26T23:42:50.995Z,3.20
2018-11-26T23:45:20.689Z,3.21
2018-11-26T23:47:49.205Z,3.20
2018-11-26T23:50:17.937Z,3.21
2018-11-26T23:52:46.718Z,3.22
2018-11-26T23:55:16.185Z,3.22
2018-11-26T23:57:44.705Z,3.20
